Time;durP1;ratioP1;P1;durP2;ratioP2;P2;SDS_P1;SDS_P2;PMS_P1;PMS_P2;Temp;Humidity;BMP_temperature;BMP_pressure;BME280_temperature;BME280_humidity;BME280_pressure;Samples;Min_cycle;Max_cycle;Signal;HPM_P1;HPM_P2
2022/01/31 00:01:14;;;;;;;16.30;10.93;;;;;;;8.41;62.85;99527.44;5092488;28;20052;-49
2022/01/31 00:03:40;;;;;;;18.80;11.27;;;;;;;8.35;62.94;99533.25;5092763;28;20103;-48
2022/01/31 00:06:06;;;;;;;16.40;11.25;;;;;;;8.38;62.96;99532.94;5092678;28;20513;-49
2022/01/31 00:08:32;;;;;;;16.67;11.65;;;;;;;8.49;62.97;99530.03;5092537;28;20397;-49
2022/01/31 00:10:58;;;;;;;15.60;10.43;;;;;;;8.60;63.08;99528.84;5091246;28;20497;-48
2022/01/31 00:13:37;;;;;;;32.75;15.70;;;;;;;8.71;62.69;99514.59;5092556;28;20035;-49
2022/01/31 00:16:03;;;;;;;158.65;141.93;;;;;;;8.62;62.75;99507.75;5091255;28;20028;-49
2022/01/31 00:18:29;;;;;;;67.32;52.40;;;;;;;8.70;63.06;99492.84;5092456;28;20031;-48
2022/01/31 00:20:55;;;;;;;168.82;150.98;;;;;;;8.63;63.11;99494.50;5092392;28;20481;-49
2022/01/31 00:23:21;;;;;;;179.93;47.00;;;;;;;8.56;63.39;99491.72;5091037;28;20024;-48
2022/01/31 00:25:47;;;;;;;73.15;18.15;;;;;;;8.55;63.42;99489.28;5092331;28;20039;-49
2022/01/31 00:28:14;;;;;;;25.15;14.38;;;;;;;8.42;62.59;99484.56;5090936;28;20028;-49
2022/01/31 00:30:40;;;;;;;21.55;12.82;;;;;;;8.42;63.40;99487.19;5092210;28;20031;-48
2022/01/31 00:33:05;;;;;;;20.73;12.55;;;;;;;8.48;63.68;99491.75;5092252;28;20375;-49
2022/01/31 00:35:31;;;;;;;81.90;13.80;;;;;;;8.35;62.74;99486.19;5092153;28;20077;-49
2022/01/31 00:37:57;;;;;;;17.33;12.48;;;;;;;8.38;63.24;99483.25;5092180;28;20028;-49
2022/01/31 00:40:23;;;;;;;18.50;12.48;;;;;;;8.55;63.28;99489.28;5090794;28;20016;-48
2022/01/31 00:42:49;;;;;;;21.63;13.27;;;;;;;8.63;62.69;99484.03;5091810;28;20040;-49
2022/01/31 00:45:26;;;;;;;92.00;14.60;;;;;;;8.55;62.16;99482.28;5090683;28;20024;-49
2022/01/31 00:48:03;;;;;;;26.38;13.45;;;;;;;8.15;62.54;99483.13;5092002;28;20039;-49
2022/01/31 00:50:36;;;;;;;18.02;12.00;;;;;;;7.99;64.37;99489.97;5091973;28;20031;-49
2022/01/31 00:53:02;;;;;;;81.63;13.18;;;;;;;8.15;63.93;99483.94;5092006;28;20032;-49
2022/01/31 00:55:28;;;;;;;29.92;11.63;;;;;;;8.18;63.78;99488.81;5091879;28;20077;-48
2022/01/31 00:57:53;;;;;;;22.13;11.23;;;;;;;8.27;63.39;99478.34;5092018;28;20481;-49
2022/01/31 01:00:19;;;;;;;52.15;13.18;;;;;;;8.17;63.26;99476.75;5090533;28;20025;-50
2022/01/31 01:02:45;;;;;;;37.72;12.02;;;;;;;8.13;63.22;99467.59;5091855;28;20030;-49
2022/01/31 01:05:11;;;;;;;34.63;12.32;;;;;;;8.11;63.81;99455.66;5091904;28;20016;-49
2022/01/31 01:07:37;;;;;;;19.35;11.40;;;;;;;8.11;63.31;99443.41;5091758;28;20102;-48
2022/01/31 01:10:04;;;;;;;18.75;12.13;;;;;;;8.11;63.81;99443.41;5091817;28;20024;-48
2022/01/31 01:12:30;;;;;;;28.20;12.10;;;;;;;8.17;63.06;99434.91;5093053;28;20401;-49
2022/01/31 01:14:57;;;;;;;40.90;13.57;;;;;;;8.02;62.64;99428.72;5095947;28;20020;-48
2022/01/31 01:17:24;;;;;;;27.25;14.43;;;;;;;7.76;63.76;99429.69;5094591;28;20052;-49
2022/01/31 01:19:49;;;;;;;30.65;13.43;;;;;;;7.54;64.45;99449.44;5095862;28;20119;-49
2022/01/31 01:22:15;;;;;;;141.93;16.85;;;;;;;7.53;65.01;99471.34;5095795;28;20509;-49
2022/01/31 01:24:41;;;;;;;40.92;14.98;;;;;;;7.60;64.80;99461.03;5095748;28;20374;-49
2022/01/31 01:27:09;;;;;;;19.88;12.77;;;;;;;7.74;65.34;99451.75;5094432;28;20028;-48
2022/01/31 01:29:35;;;;;;;21.70;14.25;;;;;;;7.96;64.68;99464.16;5095635;28;20024;-48
2022/01/31 01:32:01;;;;;;;21.80;13.35;;;;;;;8.17;63.78;99458.44;5095661;28;20028;-49
2022/01/31 01:34:31;;;;;;;24.10;13.13;;;;;;;8.26;63.48;99456.63;5095590;28;20375;-49
2022/01/31 01:36:57;;;;;;;23.42;13.70;;;;;;;8.27;63.76;99454.81;5095594;28;20449;-49
2022/01/31 01:39:22;;;;;;;20.83;12.88;;;;;;;8.30;63.43;99452.69;5095508;28;20491;-49
2022/01/31 01:41:48;;;;;;;48.08;14.25;;;;;;;8.25;63.58;99431.47;5095451;28;20030;-49
2022/01/31 01:44:15;;;;;;;26.60;17.17;;;;;;;8.13;64.17;99432.78;5095459;28;20175;-48
2022/01/31 01:46:41;;;;;;;25.67;14.73;;;;;;;8.26;63.97;99432.28;5095352;28;20102;-49
2022/01/31 01:49:06;;;;;;;30.00;14.32;;;;;;;8.31;63.23;99429.97;5095284;28;20474;-49
2022/01/31 01:51:32;;;;;;;21.20;12.88;;;;;;;8.24;63.44;99419.34;5095204;28;20027;-48
2022/01/31 01:53:59;;;;;;;24.02;13.98;;;;;;;8.15;63.03;99434.25;5095266;28;20074;-48
2022/01/31 01:56:25;;;;;;;25.23;13.25;;;;;;;8.07;63.63;99436.03;5095163;28;20125;-48
2022/01/31 01:58:51;;;;;;;21.52;14.60;;;;;;;7.91;63.40;99429.88;5095132;28;20028;-49
2022/01/31 02:01:16;;;;;;;23.17;14.23;;;;;;;7.87;64.40;99441.63;5093788;28;20111;-48
2022/01/31 02:03:42;;;;;;;17.08;13.18;;;;;;;7.87;64.44;99436.41;5095036;28;20031;-49
2022/01/31 02:06:08;;;;;;;19.08;13.15;;;;;;;7.79;64.54;99439.03;5093629;28;20020;-49
2022/01/31 02:08:40;;;;;;;19.13;13.65;;;;;;;7.88;64.46;99452.91;5094895;28;20039;-49
2022/01/31 02:11:08;;;;;;;110.15;20.55;;;;;;;8.02;64.26;99430.50;5094932;28;20399;-49
2022/01/31 02:13:36;;;;;;;22.08;14.55;;;;;;;7.99;64.06;99419.41;5094840;28;20028;-49
2022/01/31 02:16:04;;;;;;;23.65;14.55;;;;;;;8.14;63.77;99426.56;5094881;28;20024;-49
2022/01/31 02:18:30;;;;;;;26.50;17.08;;;;;;;8.27;63.57;99446.97;5094773;28;20036;-49
2022/01/31 02:20:57;;;;;;;48.10;19.15;;;;;;;8.39;63.20;99443.00;5094722;28;20039;-49
2022/01/31 02:23:23;;;;;;;27.38;17.38;;;;;;;8.25;62.72;99451.53;5094490;28;20103;-48
2022/01/31 02:25:56;;;;;;;27.48;17.08;;;;;;;8.18;64.04;99465.28;5094604;28;20024;-49
2022/01/31 02:28:24;;;;;;;26.27;17.42;;;;;;;8.18;63.31;99461.88;5093157;28;20032;-49
2022/01/31 02:30:50;;;;;;;28.63;15.38;;;;;;;8.18;63.08;99461.88;5093159;28;20020;-48
2022/01/31 02:33:18;;;;;;;23.52;16.08;;;;;;;8.12;63.52;99465.94;5093189;28;20504;-49
2022/01/31 02:35:45;;;;;;;26.73;17.27;;;;;;;8.19;63.29;99481.81;5094457;28;20090;-48
2022/01/31 02:38:11;;;;;;;22.55;14.48;;;;;;;8.26;62.09;99472.31;5094388;28;20034;-49
2022/01/31 02:40:37;;;;;;;24.90;14.25;;;;;;;8.32;62.91;99455.94;5094268;28;20016;-49
2022/01/31 02:43:03;;;;;;;27.98;17.80;;;;;;;8.50;62.06;99447.94;5094070;28;20040;-48
2022/01/31 02:45:30;;;;;;;24.08;17.38;;;;;;;8.51;61.60;99438.28;5093158;28;20036;-48
2022/01/31 02:47:58;;;;;;;32.58;18.00;;;;;;;8.32;61.51;99445.50;5094063;28;20078;-49
2022/01/31 02:50:25;;;;;;;25.63;18.30;;;;;;;8.10;62.45;99449.59;5094177;28;20378;-48
2022/01/31 02:53:00;;;;;;;26.88;15.07;;;;;;;8.14;62.62;99442.25;5092858;28;20115;-49
2022/01/31 02:55:25;;;;;;;22.63;17.00;;;;;;;8.18;62.33;99438.34;5094164;28;20066;-49
2022/01/31 02:57:51;;;;;;;22.08;15.23;;;;;;;8.16;62.04;99438.50;5094040;28;20055;-49
2022/01/31 03:00:17;;;;;;;27.95;18.30;;;;;;;8.20;62.23;99428.53;5093940;28;20074;-48
2022/01/31 03:02:43;;;;;;;25.83;17.50;;;;;;;8.15;61.55;99429.03;5093856;28;20023;-49
2022/01/31 03:05:09;;;;;;;26.48;16.42;;;;;;;8.09;62.77;99424.47;5093897;28;20036;-49
2022/01/31 03:07:36;;;;;;;25.95;17.17;;;;;;;8.08;62.60;99433.28;5093825;28;20051;-49
2022/01/31 03:10:02;;;;;;;22.30;15.80;;;;;;;7.92;62.50;99423.66;5093724;28;20024;-48
2022/01/31 03:12:28;;;;;;;23.38;15.75;;;;;;;7.80;63.17;99419.75;5093733;28;20024;-48
2022/01/31 03:14:54;;;;;;;21.83;16.05;;;;;;;7.81;63.38;99439.69;5093688;28;20090;-49
2022/01/31 03:17:19;;;;;;;27.20;16.75;;;;;;;7.94;63.12;99431.34;5093591;28;20028;-49
2022/01/31 03:19:52;;;;;;;25.77;16.15;;;;;;;7.85;63.11;99440.16;5093585;28;20056;-48
2022/01/31 03:22:19;;;;;;;25.50;16.98;;;;;;;7.82;62.67;99445.72;5093579;28;20119;-48
2022/01/31 03:24:46;;;;;;;24.05;16.88;;;;;;;7.88;63.58;99440.63;5093489;28;20020;-48
2022/01/31 03:27:12;;;;;;;31.00;19.42;;;;;;;8.01;63.05;99445.38;5093435;28;20374;-49
2022/01/31 03:29:37;;;;;;;28.52;17.65;;;;;;;8.10;62.21;99444.38;5093580;28;20445;-49
2022/01/31 03:32:04;;;;;;;25.17;15.77;;;;;;;8.13;62.67;99435.38;5093348;28;20024;-48
2022/01/31 03:34:30;;;;;;;25.80;16.98;;;;;;;8.04;62.47;99441.63;5093027;28;20399;-49
2022/01/31 03:36:55;;;;;;;22.88;16.33;;;;;;;7.78;62.49;99446.03;5092925;28;20048;-48
2022/01/31 03:39:21;;;;;;;26.60;17.88;;;;;;;7.50;62.97;99449.94;5091812;28;20561;-49
2022/01/31 03:41:47;;;;;;;27.02;18.45;;;;;;;7.22;63.90;99452.81;5092821;28;20081;-49
2022/01/31 03:44:12;;;;;;;26.35;17.98;;;;;;;7.06;64.99;99463.22;5093171;28;20028;-49
2022/01/31 03:46:38;;;;;;;27.50;17.00;;;;;;;7.12;64.94;99462.59;5092972;28;20490;-49
2022/01/31 03:49:04;;;;;;;27.75;17.25;;;;;;;7.12;64.92;99473.03;5093190;28;20104;-48
2022/01/31 03:51:30;;;;;;;28.63;17.65;;;;;;;6.93;64.61;99468.88;5092902;28;20020;-49
2022/01/31 03:53:56;;;;;;;29.40;16.63;;;;;;;6.79;65.36;99478.94;5092948;28;20512;-49
2022/01/31 03:56:22;;;;;;;24.77;17.30;;;;;;;6.84;65.60;99472.44;5092857;28;20516;-49
2022/01/31 03:58:47;;;;;;;24.17;16.23;;;;;;;6.98;65.69;99467.44;5091547;28;20417;-49
2022/01/31 04:01:13;;;;;;;24.00;16.52;;;;;;;7.25;64.81;99467.38;5092745;28;20504;-49
2022/01/31 04:03:39;;;;;;;22.08;15.52;;;;;;;7.29;64.22;99464.28;5091477;28;20031;-49
2022/01/31 04:06:04;;;;;;;22.77;15.85;;;;;;;7.23;64.73;99464.09;5091342;28;20062;-48
2022/01/31 04:08:30;;;;;;;23.10;15.15;;;;;;;7.15;64.54;99465.69;5091243;28;20157;-49
2022/01/31 04:10:56;;;;;;;24.20;14.45;;;;;;;7.13;65.18;99459.00;5091311;28;20059;-49
2022/01/31 04:13:22;;;;;;;21.95;14.73;;;;;;;7.17;64.36;99455.09;5092530;28;20024;-49
2022/01/31 04:15:47;;;;;;;20.38;14.98;;;;;;;7.10;64.97;99467.16;5091162;28;20501;-49
2022/01/31 04:18:13;;;;;;;22.20;15.45;;;;;;;7.01;65.63;99466.31;5091190;28;20505;-48
2022/01/31 04:20:39;;;;;;;19.92;14.73;;;;;;;7.04;65.07;99468.59;5092431;28;20065;-49
2022/01/31 04:23:12;;;;;;;18.63;13.93;;;;;;;7.07;65.79;99470.91;5092448;28;20024;-50
2022/01/31 04:33:37;;;;;;;17.38;13.50;;;;;;;6.79;66.49;99467.69;5092267;28;20028;-50
2022/01/31 04:36:02;;;;;;;18.95;13.20;;;;;;;6.82;66.25;99454.31;5092288;28;20397;-49
2022/01/31 04:38:28;;;;;;;18.40;13.85;;;;;;;6.88;65.86;99460.69;5092255;28;20028;-50
2022/01/31 04:40:54;;;;;;;22.42;13.63;;;;;;;6.97;66.03;99451.94;5092157;28;20047;-48
2022/01/31 04:43:20;;;;;;;21.38;14.18;;;;;;;6.95;65.81;99438.25;5090571;28;20058;-48
2022/01/31 04:45:49;;;;;;;18.23;14.10;;;;;;;6.76;66.34;99436.69;5092179;28;20512;-49
2022/01/31 04:48:20;;;;;;;20.88;15.38;;;;;;;6.71;66.50;99439.78;5091116;28;20028;-49
2022/01/31 04:50:46;;;;;;;20.25;14.80;;;;;;;6.71;66.37;99438.97;5092108;28;20421;-48
2022/01/31 04:53:13;;;;;;;21.25;14.70;;;;;;;6.68;66.91;99445.31;5092585;28;20028;-48
2022/01/31 04:55:40;;;;;;;23.92;15.73;;;;;;;6.82;66.92;99461.34;5092013;28;20115;-48
2022/01/31 04:58:07;;;;;;;23.95;15.50;;;;;;;7.09;65.66;99457.69;5091910;28;20171;-48
2022/01/31 05:00:33;;;;;;;22.42;14.38;;;;;;;7.23;65.74;99448.44;5091962;28;20027;-48
2022/01/31 05:02:59;;;;;;;26.67;16.50;;;;;;;7.26;65.06;99455.94;5091937;28;20023;-48
2022/01/31 05:05:25;;;;;;;23.02;15.98;;;;;;;7.35;64.84;99450.56;5091842;28;20032;-49
2022/01/31 05:07:53;;;;;;;24.25;15.52;;;;;;;7.31;65.31;99449.25;5090484;28;20114;-50
2022/01/31 05:10:19;;;;;;;28.05;15.52;;;;;;;7.27;65.09;99465.41;5090496;28;20016;-49
2022/01/31 05:12:46;;;;;;;44.78;16.48;;;;;;;7.37;64.89;99453.03;5091709;28;20050;-49
2022/01/31 05:15:12;;;;;;;23.10;16.42;;;;;;;7.41;64.41;99443.91;5091718;28;20032;-48
2022/01/31 05:17:38;;;;;;;23.85;16.70;;;;;;;7.22;63.96;99439.75;5091832;28;20047;-48
2022/01/31 05:20:05;;;;;;;41.22;17.13;;;;;;;7.22;64.55;99458.03;5091694;28;20055;-48
2022/01/31 05:22:30;;;;;;;58.22;18.13;;;;;;;7.34;64.32;99461.16;5091659;28;20029;-48
2022/01/31 05:24:56;;;;;;;46.38;19.55;;;;;;;7.37;64.51;99455.63;5091676;28;20019;-48
2022/01/31 05:27:22;;;;;;;23.85;16.08;;;;;;;7.39;63.83;99443.25;5091625;28;20024;-49
2022/01/31 05:29:48;;;;;;;44.95;16.63;;;;;;;7.43;64.49;99456.81;5091476;28;20397;-49
2022/01/31 05:32:14;;;;;;;36.95;17.17;;;;;;;7.52;63.86;99467.06;5090240;28;20473;-48
2022/01/31 05:34:40;;;;;;;36.00;16.98;;;;;;;7.63;63.48;99459.94;5091622;28;20039;-48
2022/01/31 05:37:06;;;;;;;42.25;17.02;;;;;;;7.64;63.38;99454.50;5090179;28;20481;-48
2022/01/31 05:39:31;;;;;;;32.63;17.45;;;;;;;7.67;63.57;99450.78;5091829;28;20405;-48
2022/01/31 05:41:57;;;;;;;24.15;15.15;;;;;;;7.70;63.30;99456.47;5091235;28;20027;-49
2022/01/31 05:44:24;;;;;;;26.00;15.98;;;;;;;7.73;63.25;99456.16;5091530;28;20509;-50
2022/01/31 05:46:51;;;;;;;31.88;16.45;;;;;;;7.67;62.68;99448.19;5091494;28;20016;-48
2022/01/31 05:49:17;;;;;;;22.90;14.57;;;;;;;7.50;62.83;99455.97;5091414;28;20551;-49
2022/01/31 05:52:04;;;;;;;28.85;15.05;;;;;;;7.45;63.50;99449.63;5091421;28;20393;-48
2022/01/31 05:54:32;;;;;;;23.55;16.48;;;;;;;7.36;63.32;99438.31;5091410;28;20028;-49
2022/01/31 05:56:59;;;;;;;23.98;15.65;;;;;;;7.14;63.38;99435.38;5091399;28;20067;-49
2022/01/31 05:59:26;;;;;;;31.60;16.23;;;;;;;6.87;64.11;99425.97;5093977;28;20023;-48
2022/01/31 06:01:52;;;;;;;27.60;17.25;;;;;;;6.68;65.06;99432.28;5095116;28;20123;-49
2022/01/31 06:04:18;;;;;;;22.35;15.35;;;;;;;6.70;64.70;99453.81;5095034;28;20024;-48
2022/01/31 06:06:44;;;;;;;26.60;17.65;;;;;;;6.51;64.86;99454.84;5095056;28;20437;-49
2022/01/31 06:09:10;;;;;;;27.95;18.77;;;;;;;6.52;66.16;99466.91;5094903;28;20020;-51
2022/01/31 06:11:36;;;;;;;21.02;15.90;;;;;;;6.70;65.53;99455.56;5094883;28;20028;-48
2022/01/31 06:14:03;;;;;;;22.80;16.20;;;;;;;6.80;65.04;99438.00;5094919;28;20440;-49
2022/01/31 06:16:29;;;;;;;29.23;16.10;;;;;;;6.94;64.87;99442.66;5094853;28;20111;-48
2022/01/31 06:18:56;;;;;;;27.58;17.33;;;;;;;7.09;64.99;99445.44;5094815;28;20434;-49
2022/01/31 06:21:22;;;;;;;25.52;16.40;;;;;;;7.17;64.51;99427.19;5095001;28;20024;-49
2022/01/31 06:23:48;;;;;;;23.00;16.10;;;;;;;7.23;64.16;99419.72;5093352;28;20016;-48
2022/01/31 06:26:13;;;;;;;23.17;15.25;;;;;;;7.14;64.26;99418.88;5094669;28;20107;-49
2022/01/31 06:28:40;;;;;;;23.52;15.38;;;;;;;6.97;64.66;99431.06;5094544;28;20103;-49
2022/01/31 06:31:06;;;;;;;21.95;14.90;;;;;;;6.85;65.02;99437.56;5093182;28;20031;-48
2022/01/31 06:33:32;;;;;;;22.40;16.02;;;;;;;6.84;65.47;99431.53;5094562;28;20016;-49
2022/01/31 06:35:59;;;;;;;23.20;16.45;;;;;;;6.98;65.32;99423.09;5093175;28;20020;-48
2022/01/31 06:38:26;;;;;;;22.02;16.85;;;;;;;6.82;64.60;99428.22;5093156;28;20020;-49
2022/01/31 06:40:52;;;;;;;25.42;17.30;;;;;;;6.63;65.31;99441.53;5094406;28;20107;-48
2022/01/31 06:43:17;;;;;;;23.85;17.08;;;;;;;6.46;65.61;99441.47;5094047;28;20461;-48
2022/01/31 06:45:43;;;;;;;19.38;15.00;;;;;;;6.35;66.64;99433.88;5094348;28;20077;-48
2022/01/31 06:48:09;;;;;;;19.67;14.90;;;;;;;6.32;67.61;99418.56;5094241;28;20107;-48
2022/01/31 06:50:35;;;;;;;19.08;13.20;;;;;;;6.28;68.00;99412.84;5094180;28;20107;-49
2022/01/31 06:53:02;;;;;;;23.42;13.60;;;;;;;6.43;67.25;99418.28;5094184;28;20024;-49
2022/01/31 06:55:29;;;;;;;22.02;14.05;;;;;;;6.39;66.94;99425.59;5094143;28;20025;-49
2022/01/31 06:57:56;;;;;;;22.05;13.35;;;;;;;6.42;67.55;99428.88;5094007;28;20020;-48
2022/01/31 07:00:22;;;;;;;23.48;17.20;;;;;;;6.64;67.39;99427.50;5094000;28;20058;-49
2022/01/31 07:02:49;;;;;;;27.10;15.95;;;;;;;6.93;66.25;99433.16;5092673;28;20067;-49
2022/01/31 07:05:16;;;;;;;27.70;15.90;;;;;;;7.17;66.01;99431.59;5092589;28;20024;-48
2022/01/31 07:07:43;;;;;;;23.65;14.52;;;;;;;7.37;65.58;99426.91;5093862;28;20497;-48
2022/01/31 07:10:10;;;;;;;21.58;14.50;;;;;;;7.52;65.03;99435.72;5091388;28;20028;-48
2022/01/31 07:12:39;;;;;;;25.83;14.05;;;;;;;7.65;64.52;99434.47;5092541;28;20509;-49
2022/01/31 07:15:07;;;;;;;24.10;14.20;;;;;;;7.73;64.60;99437.06;5093724;28;20020;-48
2022/01/31 07:17:35;;;;;;;19.83;13.52;;;;;;;7.81;64.18;99431.84;5093715;28;20099;-49
2022/01/31 07:20:09;;;;;;;22.75;14.43;;;;;;;7.86;63.79;99445.22;5093566;28;20027;-48
2022/01/31 07:22:37;;;;;;;20.90;15.63;;;;;;;7.78;63.62;99453.88;5093601;28;20039;-48
2022/01/31 07:25:21;;;;;;;18.83;13.15;;;;;;;7.69;62.71;99446.22;5093495;28;20024;-49
2022/01/31 07:27:47;;;;;;;17.50;11.88;;;;;;;7.56;63.48;99451.91;5093695;28;20106;-48
2022/01/31 07:30:13;;;;;;;16.50;12.50;;;;;;;7.55;63.62;99445.88;5092003;28;20111;-49
2022/01/31 07:32:42;;;;;;;18.83;13.20;;;;;;;7.52;63.82;99451.41;5092083;28;20039;-48
2022/01/31 07:35:09;;;;;;;18.42;13.07;;;;;;;7.55;63.88;99458.94;5093574;28;20371;-48
2022/01/31 07:37:35;;;;;;;18.48;14.55;;;;;;;7.51;64.73;99462.03;5093288;28;20507;-50
2022/01/31 07:40:04;;;;;;;20.50;13.63;;;;;;;7.42;64.76;99444.69;5093135;28;20030;-48
2022/01/31 07:42:30;;;;;;;28.77;15.65;;;;;;;7.28;66.90;99449.56;5092904;28;20040;-48
2022/01/31 07:44:56;;;;;;;24.52;16.77;;;;;;;7.23;67.75;99458.88;5091829;28;20043;-48
2022/01/31 07:47:22;;;;;;;33.70;15.52;;;;;;;7.11;67.77;99456.56;5093132;28;20501;-48
2022/01/31 07:49:50;;;;;;;23.95;16.52;;;;;;;6.89;68.36;99463.16;5092960;28;20031;-48
2022/01/31 07:52:16;;;;;;;32.22;17.27;;;;;;;6.70;68.39;99459.03;5092963;28;20063;-48
2022/01/31 07:54:43;;;;;;;22.95;16.50;;;;;;;6.47;68.62;99453.50;5093003;28;20024;-47
2022/01/31 07:57:09;;;;;;;25.20;15.68;;;;;;;6.18;69.86;99459.03;5091570;28;20107;-47
2022/01/31 07:59:35;;;;;;;26.33;17.17;;;;;;;5.93;70.46;99451.00;5092833;28;20466;-47
2022/01/31 08:02:01;;;;;;;28.92;18.70;;;;;;;5.72;70.75;99437.50;5091453;28;20063;-47
2022/01/31 08:04:27;;;;;;;24.83;15.73;;;;;;;5.59;72.38;99417.03;5092795;28;20044;-47
2022/01/31 08:06:53;;;;;;;25.45;15.63;;;;;;;5.48;72.87;99410.28;5092675;28;20087;-48
2022/01/31 08:09:18;;;;;;;24.02;16.00;;;;;;;5.38;73.49;99399.94;5092572;28;20073;-47
2022/01/31 08:11:44;;;;;;;28.90;16.52;;;;;;;5.40;74.21;99402.41;5092586;28;20485;-46
2022/01/31 08:14:11;;;;;;;27.15;16.83;;;;;;;5.51;74.53;99394.34;5092537;28;20024;-47
2022/01/31 08:16:39;;;;;;;27.25;16.23;;;;;;;5.65;74.68;99386.97;5092555;28;20024;-47
2022/01/31 08:19:08;;;;;;;23.60;14.25;;;;;;;5.86;74.43;99384.06;5092500;28;20024;-47
2022/01/31 08:21:35;;;;;;;24.27;15.70;;;;;;;6.07;74.41;99381.13;5092317;28;20060;-47
2022/01/31 08:24:00;;;;;;;24.05;16.15;;;;;;;6.31;74.50;99383.03;5092636;28;20568;-48
2022/01/31 08:26:27;;;;;;;22.55;17.33;;;;;;;6.50;73.76;99385.41;5092404;28;20028;-47
2022/01/31 08:28:59;;;;;;;22.27;16.75;;;;;;;6.48;72.64;99378.69;5092385;28;20023;-48
2022/01/31 08:36:25;;;;;;;27.05;17.05;;;;;;;6.36;73.19;99383.41;5092282;28;20024;-48
2022/01/31 08:38:52;;;;;;;19.60;14.82;;;;;;;6.47;72.20;99382.28;5092154;28;20032;-48
2022/01/31 08:41:19;;;;;;;16.15;13.25;;;;;;;6.55;72.39;99377.91;5092482;28;20012;-48
2022/01/31 08:43:45;;;;;;;19.25;11.80;;;;;;;6.73;72.27;99374.41;5091929;28;20137;-48
2022/01/31 08:46:13;;;;;;;16.75;13.00;;;;;;;6.87;71.51;99378.19;5092097;28;20075;-47
2022/01/31 08:48:39;;;;;;;19.98;12.70;;;;;;;6.84;71.76;99374.13;5092071;28;20020;-47
2022/01/31 08:51:08;;;;;;;22.95;12.93;;;;;;;6.82;71.10;99359.59;5092029;28;20038;-48
2022/01/31 08:53:34;;;;;;;19.50;12.13;;;;;;;6.83;71.08;99348.19;5092047;28;20094;-48
2022/01/31 08:56:04;;;;;;;22.50;15.30;;;;;;;6.86;71.71;99350.47;5090645;28;20061;-48
2022/01/31 08:58:30;;;;;;;105.20;50.75;;;;;;;6.99;71.55;99349.03;5090651;28;20503;-47
2022/01/31 09:01:00;;;;;;;65.88;29.35;;;;;;;7.34;71.28;99339.25;5090548;28;20115;-48
2022/01/31 09:06:01;;;;;;;22.25;12.77;;;;;;;8.25;70.17;99339.09;5091914;28;20028;-49
2022/01/31 09:08:26;;;;;;;18.83;10.60;;;;;;;8.33;68.28;99326.00;5091787;28;20023;-49
2022/01/31 09:10:52;;;;;;;20.08;11.48;;;;;;;8.11;69.65;99336.22;5091855;28;20406;-49
2022/01/31 09:13:19;;;;;;;28.20;9.77;;;;;;;8.08;69.78;99333.94;5091822;28;20103;-49
2022/01/31 09:15:45;;;;;;;35.38;9.55;;;;;;;8.17;69.89;99325.09;5091713;28;20115;-48
2022/01/31 09:18:11;;;;;;;23.45;10.18;;;;;;;8.38;69.15;99324.50;5090471;28;20103;-49
2022/01/31 09:20:37;;;;;;;11.48;9.65;;;;;;;8.23;68.21;99321.00;5091771;28;20024;-48
2022/01/31 09:23:04;;;;;;;17.60;10.35;;;;;;;8.00;69.22;99315.66;5091702;28;20020;-49
2022/01/31 09:25:30;;;;;;;15.18;8.82;;;;;;;7.93;71.20;99306.88;5091751;28;20051;-49
2022/01/31 09:28:00;;;;;;;20.05;8.85;;;;;;;8.07;71.18;99302.72;5090368;28;20398;-49
2022/01/31 09:30:27;;;;;;;18.15;8.18;;;;;;;8.11;71.19;99322.31;5091675;28;20028;-50
2022/01/31 09:32:54;;;;;;;19.42;9.90;;;;;;;7.99;71.04;99309.63;5091879;28;20436;-48
2022/01/31 09:35:21;;;;;;;14.95;9.00;;;;;;;7.87;71.73;99316.19;5095716;28;20036;-48
2022/01/31 09:37:46;;;;;;;18.90;10.13;;;;;;;7.64;72.42;99310.03;5095633;28;20136;-49
2022/01/31 09:40:17;;;;;;;14.98;9.75;;;;;;;7.48;72.94;99306.44;5094295;28;20441;-49
2022/01/31 09:45:57;;;;;;;15.25;8.57;;;;;;;7.24;75.18;99315.09;5095486;28;20064;-49
2022/01/31 09:48:33;;;;;;;44.17;9.85;;;;;;;7.17;74.77;99303.69;5095405;28;20028;-47
2022/01/31 09:51:17;;;;;;;17.65;9.10;;;;;;;7.12;75.14;99298.13;5095376;28;20024;-49
2022/01/31 09:53:45;;;;;;;14.77;9.50;;;;;;;7.24;75.27;99312.50;5095351;28;20508;-49
2022/01/31 09:56:19;;;;;;;14.65;8.90;;;;;;;7.29;75.10;99299.78;5095268;28;20023;-48
2022/01/31 09:58:45;;;;;;;13.18;8.20;;;;;;;7.35;75.47;99293.09;5095292;28;20063;-47
2022/01/31 10:01:16;;;;;;;22.88;8.50;;;;;;;7.46;76.40;99292.75;5093830;28;20028;-49
2022/01/31 10:03:54;;;;;;;12.60;7.30;;;;;;;7.71;75.88;99290.91;5093823;28;20039;-48
2022/01/31 10:06:23;;;;;;;20.10;8.10;;;;;;;7.93;75.62;99280.75;5093737;28;20077;-48
2022/01/31 10:09:13;;;;;;;12.50;7.38;;;;;;;7.92;75.59;99276.50;5094950;28;20020;-48
2022/01/31 10:11:51;;;;;;;14.70;9.30;;;;;;;7.88;75.13;99269.97;5094957;28;20028;-48
2022/01/31 10:17:32;;;;;;;22.38;10.52;;;;;;;8.05;76.18;99265.47;5095205;28;20409;-46
2022/01/31 10:20:00;;;;;;;26.00;8.73;;;;;;;8.03;76.42;99257.84;5095073;28;20389;-47
2022/01/31 10:22:32;;;;;;;8.57;7.35;;;;;;;7.83;76.48;99248.75;5093473;28;20024;-47
2022/01/31 10:25:01;;;;;;;8.70;6.85;;;;;;;7.50;76.20;99267.91;5094732;28;20069;-47
2022/01/31 10:27:32;;;;;;;9.13;7.03;;;;;;;7.25;76.91;99266.34;5094708;28;20020;-47
2022/01/31 10:30:20;;;;;;;22.85;8.65;;;;;;;7.32;78.62;99262.06;5094561;28;20500;-47
2022/01/31 10:32:49;;;;;;;11.90;8.10;;;;;;;7.53;77.83;99254.53;5093287;28;20024;-47
2022/01/31 10:35:21;;;;;;;10.20;6.00;;;;;;;7.67;77.97;99233.97;5093199;28;20126;-47
2022/01/31 10:37:48;;;;;;;12.20;7.32;;;;;;;7.68;77.70;99238.19;5094484;28;20102;-47
2022/01/31 10:56:50;;;;;;;19.90;12.25;;;;;;;9.05;77.62;99218.44;5051616;28;20037;-47
2022/01/31 10:59:17;;;;;;;22.20;12.55;;;;;;;8.99;77.40;99206.91;5034906;28;20546;-47
2022/01/31 11:01:47;;;;;;;23.92;13.27;;;;;;;9.09;77.50;99190.91;5051533;28;20079;-47
2022/01/31 11:04:15;;;;;;;118.40;20.55;;;;;;;9.47;77.95;99192.69;5034744;28;20414;-48
2022/01/31 11:06:45;;;;;;;12.10;9.05;;;;;;;9.80;76.72;99183.47;5051484;28;20045;-47
2022/01/31 11:09:16;;;;;;;24.77;14.27;;;;;;;10.06;77.06;99187.41;5051335;28;20044;-47
2022/01/31 11:11:47;;;;;;;17.48;11.60;;;;;;;10.44;74.89;99191.63;5051425;28;20446;-47
2022/01/31 11:14:14;;;;;;;20.02;13.38;;;;;;;10.43;74.51;99190.84;5051478;28;20115;-48
2022/01/31 11:16:43;;;;;;;14.82;10.68;;;;;;;10.19;74.00;99192.78;5051235;28;20584;-48
2022/01/31 11:19:10;;;;;;;17.15;11.35;;;;;;;9.98;74.85;99185.69;5034479;28;20399;-48
2022/01/31 11:21:39;;;;;;;24.52;13.90;;;;;;;9.78;74.65;99187.25;5051634;28;20108;-48
2022/01/31 11:24:17;;;;;;;105.90;37.70;;;;;;;9.53;75.48;99187.53;5092226;28;20517;-48
2022/01/31 11:26:47;;;;;;;179.70;63.88;;;;;;;9.48;75.70;99191.72;5093507;28;20028;-48
2022/01/31 11:29:14;;;;;;;54.20;22.35;;;;;;;9.46;75.98;99188.47;5093440;28;20046;-48
2022/01/31 11:31:40;;;;;;;35.13;17.50;;;;;;;9.54;76.18;99183.94;5092018;28;20020;-48
2022/01/31 11:34:08;;;;;;;31.17;16.27;;;;;;;9.57;76.35;99187.97;5093393;28;20031;-48
2022/01/31 11:36:36;;;;;;;20.67;13.70;;;;;;;9.57;76.13;99190.59;5091965;28;20023;-49
2022/01/31 11:39:09;;;;;;;15.50;11.95;;;;;;;9.53;76.18;99186.72;5093274;28;20073;-47
2022/01/31 11:41:41;;;;;;;31.77;16.55;;;;;;;9.51;76.34;99179.03;5091960;28;20058;-48
2022/01/31 11:44:15;;;;;;;20.75;13.55;;;;;;;9.57;76.31;99169.63;5093234;28;20044;-49
2022/01/31 11:46:41;;;;;;;26.20;15.23;;;;;;;9.51;75.48;99163.31;5093181;28;20101;-47
2022/01/31 11:49:13;;;;;;;25.17;14.70;;;;;;;9.59;75.78;99162.41;5093032;28;20066;-48
2022/01/31 11:51:50;;;;;;;20.48;14.48;;;;;;;9.62;75.58;99154.19;5093058;28;20103;-48
2022/01/31 11:54:22;;;;;;;26.10;15.48;;;;;;;9.62;75.66;99148.13;5091634;28;20028;-49
2022/01/31 11:56:52;;;;;;;22.27;14.30;;;;;;;9.55;75.64;99150.66;5092521;28;20470;-49
2022/01/31 11:59:21;;;;;;;24.23;13.82;;;;;;;9.50;76.03;99163.53;5091628;28;20115;-47
2022/01/31 12:01:50;;;;;;;22.63;12.38;;;;;;;9.49;76.03;99154.03;5091522;28;20028;-48
2022/01/31 12:04:16;;;;;;;21.55;12.23;;;;;;;9.52;76.15;99161.53;5092818;28;20055;-48
2022/01/31 12:06:42;;;;;;;24.60;13.48;;;;;;;9.61;76.72;99155.19;5092628;28;20016;-48